sensor_id;sensor_type;location;lat;lon;timestamp;temperature;humidity
4739;DHT22;2383;48.632;10.156;2022-12-10T00:03:36;7.80;95.50
4739;DHT22;2383;48.632;10.156;2022-12-10T00:07:38;7.50;95.50
4739;DHT22;2383;48.632;10.156;2022-12-10T00:11:40;7.50;95.70
4739;DHT22;2383;48.632;10.156;2022-12-10T00:15:42;7.50;95.70
4739;DHT22;2383;48.632;10.156;2022-12-10T00:19:44;7.20;95.70
4739;DHT22;2383;48.632;10.156;2022-12-10T00:23:46;7.40;95.90
4739;DHT22;2383;48.632;10.156;2022-12-10T00:27:47;7.50;95.90
4739;DHT22;2383;48.632;10.156;2022-12-10T00:31:49;7.50;95.90
4739;DHT22;2383;48.632;10.156;2022-12-10T00:35:51;7.60;95.90
4739;DHT22;2383;48.632;10.156;2022-12-10T00:39:52;7.10;96.00
4739;DHT22;2383;48.632;10.156;2022-12-10T00:43:54;7.20;96.20
4739;DHT22;2383;48.632;10.156;2022-12-10T00:47:56;7.40;96.00
4739;DHT22;2383;48.632;10.156;2022-12-10T00:51:58;7.50;95.80
4739;DHT22;2383;48.632;10.156;2022-12-10T00:56:00;7.60;95.80
4739;DHT22;2383;48.632;10.156;2022-12-10T01:00:03;7.70;95.60
4739;DHT22;2383;48.632;10.156;2022-12-10T01:04:16;7.40;95.80
4739;DHT22;2383;48.632;10.156;2022-12-10T01:08:18;7.60;95.70
4739;DHT22;2383;48.632;10.156;2022-12-10T01:12:20;7.50;95.60
4739;DHT22;2383;48.632;10.156;2022-12-10T01:16:22;7.60;95.70
4739;DHT22;2383;48.632;10.156;2022-12-10T01:20:24;7.80;95.90
4739;DHT22;2383;48.632;10.156;2022-12-10T01:24:27;7.70;95.80
4739;DHT22;2383;48.632;10.156;2022-12-10T01:28:34;7.90;95.50
4739;DHT22;2383;48.632;10.156;2022-12-10T01:32:35;7.80;95.70
4739;DHT22;2383;48.632;10.156;2022-12-10T01:36:40;7.80;95.50
4739;DHT22;2383;48.632;10.156;2022-12-10T01:40:42;7.90;95.50
4739;DHT22;2383;48.632;10.156;2022-12-10T01:48:46;7.90;95.50
4739;DHT22;2383;48.632;10.156;2022-12-10T01:52:48;7.80;95.40
4739;DHT22;2383;48.632;10.156;2022-12-10T01:57:09;7.80;95.50
4739;DHT22;2383;48.632;10.156;2022-12-10T02:05:32;7.80;95.40
4739;DHT22;2383;48.632;10.156;2022-12-10T02:14:24;7.70;95.50
4739;DHT22;2383;48.632;10.156;2022-12-10T02:18:43;7.80;95.40
4739;DHT22;2383;48.632;10.156;2022-12-10T02:22:56;7.70;95.30
4739;DHT22;2383;48.632;10.156;2022-12-10T02:27:06;7.60;95.50
4739;DHT22;2383;48.632;10.156;2022-12-10T02:31:14;7.60;95.40
4739;DHT22;2383;48.632;10.156;2022-12-10T02:35:24;7.50;95.50
4739;DHT22;2383;48.632;10.156;2022-12-10T02:39:31;7.60;95.60
4739;DHT22;2383;48.632;10.156;2022-12-10T02:43:35;7.70;95.50
4739;DHT22;2383;48.632;10.156;2022-12-10T02:47:38;7.50;95.70
4739;DHT22;2383;48.632;10.156;2022-12-10T02:51:40;7.50;95.80
4739;DHT22;2383;48.632;10.156;2022-12-10T03:00:18;7.60;95.90
4739;DHT22;2383;48.632;10.156;2022-12-10T03:04:38;7.20;95.50
4739;DHT22;2383;48.632;10.156;2022-12-10T03:08:58;7.10;95.80
4739;DHT22;2383;48.632;10.156;2022-12-10T03:13:06;7.30;96.00
4739;DHT22;2383;48.632;10.156;2022-12-10T03:17:08;7.40;95.80
4739;DHT22;2383;48.632;10.156;2022-12-10T03:21:10;7.70;95.80
4739;DHT22;2383;48.632;10.156;2022-12-10T03:25:15;7.70;95.60
4739;DHT22;2383;48.632;10.156;2022-12-10T03:29:26;7.60;95.80
4739;DHT22;2383;48.632;10.156;2022-12-10T03:33:29;7.80;95.70
4739;DHT22;2383;48.632;10.156;2022-12-10T03:37:31;7.70;95.40
4739;DHT22;2383;48.632;10.156;2022-12-10T03:41:33;7.60;95.50
4739;DHT22;2383;48.632;10.156;2022-12-10T03:45:35;7.60;95.30
4739;DHT22;2383;48.632;10.156;2022-12-10T03:49:37;7.70;95.40
4739;DHT22;2383;48.632;10.156;2022-12-10T03:53:39;7.70;95.50
4739;DHT22;2383;48.632;10.156;2022-12-10T03:57:41;7.60;95.50
4739;DHT22;2383;48.632;10.156;2022-12-10T04:01:43;7.60;95.40
4739;DHT22;2383;48.632;10.156;2022-12-10T04:05:44;7.60;95.30
4739;DHT22;2383;48.632;10.156;2022-12-10T04:09:46;7.70;95.30
4739;DHT22;2383;48.632;10.156;2022-12-10T04:13:48;7.40;95.50
4739;DHT22;2383;48.632;10.156;2022-12-10T04:18:09;7.50;95.60
4739;DHT22;2383;48.632;10.156;2022-12-10T04:22:10;7.40;95.60
4739;DHT22;2383;48.632;10.156;2022-12-10T04:26:30;7.30;95.50
4739;DHT22;2383;48.632;10.156;2022-12-10T04:30:51;6.80;95.50
4739;DHT22;2383;48.632;10.156;2022-12-10T04:34:53;6.70;96.10
4739;DHT22;2383;48.632;10.156;2022-12-10T04:38:55;6.60;95.70
4739;DHT22;2383;48.632;10.156;2022-12-10T04:42:56;6.90;95.60
4739;DHT22;2383;48.632;10.156;2022-12-10T04:46:58;6.90;95.60
4739;DHT22;2383;48.632;10.156;2022-12-10T04:51:00;6.90;95.60
4739;DHT22;2383;48.632;10.156;2022-12-10T04:55:02;7.10;95.50
4739;DHT22;2383;48.632;10.156;2022-12-10T04:59:04;7.10;95.30
4739;DHT22;2383;48.632;10.156;2022-12-10T05:03:06;6.90;95.10
4739;DHT22;2383;48.632;10.156;2022-12-10T05:07:08;7.00;95.10
4739;DHT22;2383;48.632;10.156;2022-12-10T05:11:15;7.00;95.20
4739;DHT22;2383;48.632;10.156;2022-12-10T05:15:17;6.70;95.20
4739;DHT22;2383;48.632;10.156;2022-12-10T05:19:19;6.40;95.90
4739;DHT22;2383;48.632;10.156;2022-12-10T05:23:21;6.30;95.90
4739;DHT22;2383;48.632;10.156;2022-12-10T05:27:33;6.70;95.70
4739;DHT22;2383;48.632;10.156;2022-12-10T05:31:36;7.00;95.20
4739;DHT22;2383;48.632;10.156;2022-12-10T05:35:37;7.10;95.10
4739;DHT22;2383;48.632;10.156;2022-12-10T05:39:39;7.20;95.00
4739;DHT22;2383;48.632;10.156;2022-12-10T05:43:42;7.20;94.80
4739;DHT22;2383;48.632;10.156;2022-12-10T05:47:44;7.10;94.70
4739;DHT22;2383;48.632;10.156;2022-12-10T05:51:45;7.10;94.90
4739;DHT22;2383;48.632;10.156;2022-12-10T05:55:47;7.20;94.80
4739;DHT22;2383;48.632;10.156;2022-12-10T05:59:49;7.30;94.70
4739;DHT22;2383;48.632;10.156;2022-12-10T06:03:51;7.10;95.00
4739;DHT22;2383;48.632;10.156;2022-12-10T06:07:53;7.30;94.90
4739;DHT22;2383;48.632;10.156;2022-12-10T06:11:55;7.50;94.90
4739;DHT22;2383;48.632;10.156;2022-12-10T06:15:57;7.40;95.00
4739;DHT22;2383;48.632;10.156;2022-12-10T06:19:59;7.20;94.90
4739;DHT22;2383;48.632;10.156;2022-12-10T06:24:00;7.30;95.20
4739;DHT22;2383;48.632;10.156;2022-12-10T06:28:03;7.20;94.90
4739;DHT22;2383;48.632;10.156;2022-12-10T06:32:05;7.20;95.10
4739;DHT22;2383;48.632;10.156;2022-12-10T06:36:09;7.30;95.00
4739;DHT22;2383;48.632;10.156;2022-12-10T06:40:11;7.10;95.10
4739;DHT22;2383;48.632;10.156;2022-12-10T06:44:13;7.20;95.20
4739;DHT22;2383;48.632;10.156;2022-12-10T06:48:15;7.30;95.20
4739;DHT22;2383;48.632;10.156;2022-12-10T06:52:16;7.40;95.20
4739;DHT22;2383;48.632;10.156;2022-12-10T06:56:19;7.60;95.20
4739;DHT22;2383;48.632;10.156;2022-12-10T07:00:21;7.60;94.90
4739;DHT22;2383;48.632;10.156;2022-12-10T07:04:23;7.70;94.90
4739;DHT22;2383;48.632;10.156;2022-12-10T07:08:24;7.70;94.80
4739;DHT22;2383;48.632;10.156;2022-12-10T07:12:26;7.70;94.50
4739;DHT22;2383;48.632;10.156;2022-12-10T07:16:30;7.40;94.60
4739;DHT22;2383;48.632;10.156;2022-12-10T07:20:32;7.50;94.60
4739;DHT22;2383;48.632;10.156;2022-12-10T07:24:33;7.40;94.60
4739;DHT22;2383;48.632;10.156;2022-12-10T07:28:35;7.50;94.60
4739;DHT22;2383;48.632;10.156;2022-12-10T07:32:50;7.30;94.30
4739;DHT22;2383;48.632;10.156;2022-12-10T07:36:52;7.40;94.30
4739;DHT22;2383;48.632;10.156;2022-12-10T07:40:53;7.60;94.40
4739;DHT22;2383;48.632;10.156;2022-12-10T07:44:55;7.70;94.40
4739;DHT22;2383;48.632;10.156;2022-12-10T07:48:59;7.70;94.40
4739;DHT22;2383;48.632;10.156;2022-12-10T07:53:01;7.90;94.50
4739;DHT22;2383;48.632;10.156;2022-12-10T07:57:03;7.80;94.40
4739;DHT22;2383;48.632;10.156;2022-12-10T08:01:08;7.80;94.50
4739;DHT22;2383;48.632;10.156;2022-12-10T08:05:10;7.80;94.30
4739;DHT22;2383;48.632;10.156;2022-12-10T08:09:12;7.90;94.10
4739;DHT22;2383;48.632;10.156;2022-12-10T08:13:14;7.90;94.30
4739;DHT22;2383;48.632;10.156;2022-12-10T08:17:15;7.60;94.30
4739;DHT22;2383;48.632;10.156;2022-12-10T08:21:19;7.40;94.40
4739;DHT22;2383;48.632;10.156;2022-12-10T08:25:21;7.40;94.80
4739;DHT22;2383;48.632;10.156;2022-12-10T08:29:23;7.60;94.70
4739;DHT22;2383;48.632;10.156;2022-12-10T08:33:25;7.70;94.60
4739;DHT22;2383;48.632;10.156;2022-12-10T08:37:26;7.50;94.30
4739;DHT22;2383;48.632;10.156;2022-12-10T08:41:28;7.40;94.70
4739;DHT22;2383;48.632;10.156;2022-12-10T08:45:30;7.30;94.70
4739;DHT22;2383;48.632;10.156;2022-12-10T08:49:31;7.30;95.20
4739;DHT22;2383;48.632;10.156;2022-12-10T08:53:34;7.60;94.60
4739;DHT22;2383;48.632;10.156;2022-12-10T08:57:35;7.60;94.00
4739;DHT22;2383;48.632;10.156;2022-12-10T09:01:40;7.50;93.90
4739;DHT22;2383;48.632;10.156;2022-12-10T09:05:42;7.60;94.20
4739;DHT22;2383;48.632;10.156;2022-12-10T09:09:43;7.40;94.40
4739;DHT22;2383;48.632;10.156;2022-12-10T09:13:45;7.70;94.00
4739;DHT22;2383;48.632;10.156;2022-12-10T09:17:47;7.90;93.80
4739;DHT22;2383;48.632;10.156;2022-12-10T09:21:49;7.90;93.50
4739;DHT22;2383;48.632;10.156;2022-12-10T09:25:50;7.70;93.40
4739;DHT22;2383;48.632;10.156;2022-12-10T09:29:52;6.30;93.70
4739;DHT22;2383;48.632;10.156;2022-12-10T09:33:54;6.90;94.10
4739;DHT22;2383;48.632;10.156;2022-12-10T09:37:55;7.10;93.80
4739;DHT22;2383;48.632;10.156;2022-12-10T09:50:33;5.20;94.30
4739;DHT22;2383;48.632;10.156;2022-12-10T09:54:48;5.30;94.40
4739;DHT22;2383;48.632;10.156;2022-12-10T09:58:50;6.00;94.40
4739;DHT22;2383;48.632;10.156;2022-12-10T10:02:56;6.30;93.50
4739;DHT22;2383;48.632;10.156;2022-12-10T10:07:00;6.90;93.00
4739;DHT22;2383;48.632;10.156;2022-12-10T10:11:03;6.40;92.70
4739;DHT22;2383;48.632;10.156;2022-12-10T10:15:13;6.50;93.20
4739;DHT22;2383;48.632;10.156;2022-12-10T10:19:19;6.80;92.70
4739;DHT22;2383;48.632;10.156;2022-12-10T10:23:22;7.10;92.80
4739;DHT22;2383;48.632;10.156;2022-12-10T10:27:26;7.50;92.90
4739;DHT22;2383;48.632;10.156;2022-12-10T10:31:31;7.70;92.70
4739;DHT22;2383;48.632;10.156;2022-12-10T10:36:02;7.40;92.60
4739;DHT22;2383;48.632;10.156;2022-12-10T10:40:27;6.80;93.20
4739;DHT22;2383;48.632;10.156;2022-12-10T10:44:35;6.60;93.50
4739;DHT22;2383;48.632;10.156;2022-12-10T10:48:37;6.90;93.30
4739;DHT22;2383;48.632;10.156;2022-12-10T10:52:41;6.80;93.10
4739;DHT22;2383;48.632;10.156;2022-12-10T10:56:43;5.70;93.30
4739;DHT22;2383;48.632;10.156;2022-12-10T11:05:22;5.60;94.40
4739;DHT22;2383;48.632;10.156;2022-12-10T11:09:30;6.30;93.80
4739;DHT22;2383;48.632;10.156;2022-12-10T11:13:35;6.20;93.40
4739;DHT22;2383;48.632;10.156;2022-12-10T11:17:47;6.40;93.30
4739;DHT22;2383;48.632;10.156;2022-12-10T11:21:49;5.70;93.70
4739;DHT22;2383;48.632;10.156;2022-12-10T11:30:20;5.20;94.80
4739;DHT22;2383;48.632;10.156;2022-12-10T11:39:10;5.00;95.00
4739;DHT22;2383;48.632;10.156;2022-12-10T11:52:40;5.30;94.50
4739;DHT22;2383;48.632;10.156;2022-12-10T11:56:49;5.10;94.40
4739;DHT22;2383;48.632;10.156;2022-12-10T12:01:22;5.10;94.90
4739;DHT22;2383;48.632;10.156;2022-12-10T12:10:44;6.40;94.50
4739;DHT22;2383;48.632;10.156;2022-12-10T12:14:53;6.90;93.90
4739;DHT22;2383;48.632;10.156;2022-12-10T12:18:58;7.00;93.60
4739;DHT22;2383;48.632;10.156;2022-12-10T12:27:32;7.80;93.30
4739;DHT22;2383;48.632;10.156;2022-12-10T12:31:38;7.50;93.60
4739;DHT22;2383;48.632;10.156;2022-12-10T12:35:55;6.60;94.20
4739;DHT22;2383;48.632;10.156;2022-12-10T12:40:00;6.90;94.10
4739;DHT22;2383;48.632;10.156;2022-12-10T12:48:29;6.80;94.70
4739;DHT22;2383;48.632;10.156;2022-12-10T12:56:58;6.20;93.90
4739;DHT22;2383;48.632;10.156;2022-12-10T13:05:32;6.40;93.90
4739;DHT22;2383;48.632;10.156;2022-12-10T13:09:43;7.10;93.30
4739;DHT22;2383;48.632;10.156;2022-12-10T13:14:15;7.30;93.10
4739;DHT22;2383;48.632;10.156;2022-12-10T13:18:23;7.30;93.30
4739;DHT22;2383;48.632;10.156;2022-12-10T13:22:42;7.60;92.50
4739;DHT22;2383;48.632;10.156;2022-12-10T13:35:26;7.80;93.20
4739;DHT22;2383;48.632;10.156;2022-12-10T13:39:44;7.70;93.20
4739;DHT22;2383;48.632;10.156;2022-12-10T13:43:55;7.60;93.50
4739;DHT22;2383;48.632;10.156;2022-12-10T13:48:31;7.30;93.40
4739;DHT22;2383;48.632;10.156;2022-12-10T14:09:51;7.10;93.70
4739;DHT22;2383;48.632;10.156;2022-12-10T14:13:57;6.80;93.50
4739;DHT22;2383;48.632;10.156;2022-12-10T14:18:03;7.30;93.30
4739;DHT22;2383;48.632;10.156;2022-12-10T14:22:07;7.50;92.70
4739;DHT22;2383;48.632;10.156;2022-12-10T14:30:22;7.40;92.70
4739;DHT22;2383;48.632;10.156;2022-12-10T14:34:27;7.30;92.50
4739;DHT22;2383;48.632;10.156;2022-12-10T14:38:32;7.50;92.40
4739;DHT22;2383;48.632;10.156;2022-12-10T14:42:38;7.50;92.40
4739;DHT22;2383;48.632;10.156;2022-12-10T14:46:40;6.80;92.10
4739;DHT22;2383;48.632;10.156;2022-12-10T14:50:43;6.80;93.00
4739;DHT22;2383;48.632;10.156;2022-12-10T14:54:45;7.00;92.80
4739;DHT22;2383;48.632;10.156;2022-12-10T15:03:00;5.60;93.50
4739;DHT22;2383;48.632;10.156;2022-12-10T15:07:05;6.50;93.80
4739;DHT22;2383;48.632;10.156;2022-12-10T15:11:07;6.50;93.20
4739;DHT22;2383;48.632;10.156;2022-12-10T15:19:18;6.80;92.90
4739;DHT22;2383;48.632;10.156;2022-12-10T15:23:23;6.60;92.80
4739;DHT22;2383;48.632;10.156;2022-12-10T15:27:26;6.10;93.50
4739;DHT22;2383;48.632;10.156;2022-12-10T15:31:30;6.60;93.20
4739;DHT22;2383;48.632;10.156;2022-12-10T15:35:35;6.10;93.00
4739;DHT22;2383;48.632;10.156;2022-12-10T15:39:44;6.10;93.60
4739;DHT22;2383;48.632;10.156;2022-12-10T15:44:04;5.80;94.20
4739;DHT22;2383;48.632;10.156;2022-12-10T15:48:11;6.50;93.80
4739;DHT22;2383;48.632;10.156;2022-12-10T15:56:16;6.80;93.30
4739;DHT22;2383;48.632;10.156;2022-12-10T16:00:23;6.50;93.60
4739;DHT22;2383;48.632;10.156;2022-12-10T16:04:25;6.10;94.20
4739;DHT22;2383;48.632;10.156;2022-12-10T16:08:28;6.30;93.40
4739;DHT22;2383;48.632;10.156;2022-12-10T16:12:31;6.40;93.60
4739;DHT22;2383;48.632;10.156;2022-12-10T16:16:40;6.80;92.90
4739;DHT22;2383;48.632;10.156;2022-12-10T16:20:43;6.40;93.60
4739;DHT22;2383;48.632;10.156;2022-12-10T16:24:44;6.80;93.50
4739;DHT22;2383;48.632;10.156;2022-12-10T16:28:48;6.90;93.20
4739;DHT22;2383;48.632;10.156;2022-12-10T16:32:51;6.90;93.00
4739;DHT22;2383;48.632;10.156;2022-12-10T16:36:53;6.40;93.30
4739;DHT22;2383;48.632;10.156;2022-12-10T16:40:55;6.70;92.60
4739;DHT22;2383;48.632;10.156;2022-12-10T16:44:57;6.40;92.90
4739;DHT22;2383;48.632;10.156;2022-12-10T16:49:02;6.50;92.50
4739;DHT22;2383;48.632;10.156;2022-12-10T16:53:18;6.40;93.00
4739;DHT22;2383;48.632;10.156;2022-12-10T16:57:20;5.60;93.30
4739;DHT22;2383;48.632;10.156;2022-12-10T17:01:26;5.90;93.20
4739;DHT22;2383;48.632;10.156;2022-12-10T17:05:39;6.40;93.10
4739;DHT22;2383;48.632;10.156;2022-12-10T17:09:42;6.50;92.80
4739;DHT22;2383;48.632;10.156;2022-12-10T17:13:45;6.20;93.10
4739;DHT22;2383;48.632;10.156;2022-12-10T17:17:47;6.30;93.30
4739;DHT22;2383;48.632;10.156;2022-12-10T17:21:49;6.70;92.90
4739;DHT22;2383;48.632;10.156;2022-12-10T17:25:51;6.50;92.50
4739;DHT22;2383;48.632;10.156;2022-12-10T17:29:53;6.90;92.80
4739;DHT22;2383;48.632;10.156;2022-12-10T17:33:55;6.90;92.70
4739;DHT22;2383;48.632;10.156;2022-12-10T17:37:57;7.10;92.90
4739;DHT22;2383;48.632;10.156;2022-12-10T17:41:59;7.20;92.60
4739;DHT22;2383;48.632;10.156;2022-12-10T17:46:01;7.20;92.30
4739;DHT22;2383;48.632;10.156;2022-12-10T17:50:03;7.30;92.50
4739;DHT22;2383;48.632;10.156;2022-12-10T17:54:06;7.20;92.20
4739;DHT22;2383;48.632;10.156;2022-12-10T17:58:10;7.00;92.30
4739;DHT22;2383;48.632;10.156;2022-12-10T18:02:12;7.00;92.50
4739;DHT22;2383;48.632;10.156;2022-12-10T18:06:17;6.60;93.00
4739;DHT22;2383;48.632;10.156;2022-12-10T18:10:23;6.10;93.10
4739;DHT22;2383;48.632;10.156;2022-12-10T18:14:25;6.30;93.10
4739;DHT22;2383;48.632;10.156;2022-12-10T18:18:26;6.10;93.30
4739;DHT22;2383;48.632;10.156;2022-12-10T18:22:28;5.80;93.20
4739;DHT22;2383;48.632;10.156;2022-12-10T18:26:31;6.10;93.40
4739;DHT22;2383;48.632;10.156;2022-12-10T18:30:34;6.50;92.90
4739;DHT22;2383;48.632;10.156;2022-12-10T18:34:36;6.50;92.80
4739;DHT22;2383;48.632;10.156;2022-12-10T18:38:37;6.70;92.70
4739;DHT22;2383;48.632;10.156;2022-12-10T18:42:39;6.70;92.30
4739;DHT22;2383;48.632;10.156;2022-12-10T18:46:49;6.90;92.50
4739;DHT22;2383;48.632;10.156;2022-12-10T18:50:51;6.20;91.90
4739;DHT22;2383;48.632;10.156;2022-12-10T18:54:55;5.20;93.30
4739;DHT22;2383;48.632;10.156;2022-12-10T18:58:57;4.80;94.10
4739;DHT22;2383;48.632;10.156;2022-12-10T19:02:59;5.70;93.50
4739;DHT22;2383;48.632;10.156;2022-12-10T19:07:01;5.40;93.40
4739;DHT22;2383;48.632;10.156;2022-12-10T19:11:03;5.60;92.80
4739;DHT22;2383;48.632;10.156;2022-12-10T19:15:05;5.90;92.50
4739;DHT22;2383;48.632;10.156;2022-12-10T19:19:11;5.20;92.80
4739;DHT22;2383;48.632;10.156;2022-12-10T19:23:13;4.90;93.20
4739;DHT22;2383;48.632;10.156;2022-12-10T19:27:14;5.40;92.80
4739;DHT22;2383;48.632;10.156;2022-12-10T19:31:16;4.80;93.00
4739;DHT22;2383;48.632;10.156;2022-12-10T19:35:24;4.90;92.20
4739;DHT22;2383;48.632;10.156;2022-12-10T19:39:29;5.00;92.50
4739;DHT22;2383;48.632;10.156;2022-12-10T19:43:33;5.30;92.60
4739;DHT22;2383;48.632;10.156;2022-12-10T19:47:34;5.30;92.60
4739;DHT22;2383;48.632;10.156;2022-12-10T19:51:36;5.60;92.10
4739;DHT22;2383;48.632;10.156;2022-12-10T19:55:38;4.90;92.40
4739;DHT22;2383;48.632;10.156;2022-12-10T19:59:40;5.40;92.30
4739;DHT22;2383;48.632;10.156;2022-12-10T20:03:42;5.70;92.10
4739;DHT22;2383;48.632;10.156;2022-12-10T20:07:44;5.70;91.80
4739;DHT22;2383;48.632;10.156;2022-12-10T20:11:46;6.00;91.90
4739;DHT22;2383;48.632;10.156;2022-12-10T20:15:48;6.00;91.90
4739;DHT22;2383;48.632;10.156;2022-12-10T20:19:51;6.00;91.70
4739;DHT22;2383;48.632;10.156;2022-12-10T20:23:53;5.70;91.40
4739;DHT22;2383;48.632;10.156;2022-12-10T20:28:03;5.40;91.70
4739;DHT22;2383;48.632;10.156;2022-12-10T20:32:05;5.30;91.80
4739;DHT22;2383;48.632;10.156;2022-12-10T20:36:13;5.60;91.90
4739;DHT22;2383;48.632;10.156;2022-12-10T20:40:20;5.80;91.70
4739;DHT22;2383;48.632;10.156;2022-12-10T20:44:37;5.90;91.50
4739;DHT22;2383;48.632;10.156;2022-12-10T20:48:39;5.90;91.30
4739;DHT22;2383;48.632;10.156;2022-12-10T20:52:40;5.50;91.10
4739;DHT22;2383;48.632;10.156;2022-12-10T20:56:42;5.60;91.40
4739;DHT22;2383;48.632;10.156;2022-12-10T21:00:44;5.50;91.20
4739;DHT22;2383;48.632;10.156;2022-12-10T21:04:46;5.40;91.40
4739;DHT22;2383;48.632;10.156;2022-12-10T21:08:48;5.40;91.30
4739;DHT22;2383;48.632;10.156;2022-12-10T21:12:50;5.60;91.30
4739;DHT22;2383;48.632;10.156;2022-12-10T21:16:52;5.60;91.30
4739;DHT22;2383;48.632;10.156;2022-12-10T21:20:54;5.50;91.40
4739;DHT22;2383;48.632;10.156;2022-12-10T21:24:56;5.70;91.50
4739;DHT22;2383;48.632;10.156;2022-12-10T21:28:58;5.10;92.00
4739;DHT22;2383;48.632;10.156;2022-12-10T21:33:00;5.20;91.80
4739;DHT22;2383;48.632;10.156;2022-12-10T21:37:02;4.90;92.40
4739;DHT22;2383;48.632;10.156;2022-12-10T21:41:08;5.20;92.10
4739;DHT22;2383;48.632;10.156;2022-12-10T21:45:30;5.10;92.40
4739;DHT22;2383;48.632;10.156;2022-12-10T21:49:32;5.40;92.00
4739;DHT22;2383;48.632;10.156;2022-12-10T21:53:34;5.60;91.90
4739;DHT22;2383;48.632;10.156;2022-12-10T21:57:36;5.60;91.80
4739;DHT22;2383;48.632;10.156;2022-12-10T22:01:38;5.30;91.90
4739;DHT22;2383;48.632;10.156;2022-12-10T22:05:41;5.50;92.10
4739;DHT22;2383;48.632;10.156;2022-12-10T22:09:43;5.30;92.40
4739;DHT22;2383;48.632;10.156;2022-12-10T22:13:44;4.20;92.90
4739;DHT22;2383;48.632;10.156;2022-12-10T22:17:46;5.00;93.00
4739;DHT22;2383;48.632;10.156;2022-12-10T22:21:48;5.40;92.70
4739;DHT22;2383;48.632;10.156;2022-12-10T22:25:50;5.00;93.00
4739;DHT22;2383;48.632;10.156;2022-12-10T22:29:58;4.50;93.40
4739;DHT22;2383;48.632;10.156;2022-12-10T22:34:00;5.00;92.70
4739;DHT22;2383;48.632;10.156;2022-12-10T22:38:03;5.30;92.70
4739;DHT22;2383;48.632;10.156;2022-12-10T22:42:04;5.60;92.50
4739;DHT22;2383;48.632;10.156;2022-12-10T22:46:06;5.60;92.10
4739;DHT22;2383;48.632;10.156;2022-12-10T22:50:08;5.30;92.20
4739;DHT22;2383;48.632;10.156;2022-12-10T22:54:10;5.40;92.10
4739;DHT22;2383;48.632;10.156;2022-12-10T22:58:11;5.60;92.10
4739;DHT22;2383;48.632;10.156;2022-12-10T23:02:13;5.70;91.80
4739;DHT22;2383;48.632;10.156;2022-12-10T23:06:15;4.90;92.20
4739;DHT22;2383;48.632;10.156;2022-12-10T23:10:17;4.60;92.90
4739;DHT22;2383;48.632;10.156;2022-12-10T23:14:20;5.30;92.60
4739;DHT22;2383;48.632;10.156;2022-12-10T23:18:22;5.60;92.50
4739;DHT22;2383;48.632;10.156;2022-12-10T23:22:23;5.50;92.10
4739;DHT22;2383;48.632;10.156;2022-12-10T23:26:25;5.50;92.10
4739;DHT22;2383;48.632;10.156;2022-12-10T23:30:27;5.60;92.20
4739;DHT22;2383;48.632;10.156;2022-12-10T23:34:28;5.50;92.30
4739;DHT22;2383;48.632;10.156;2022-12-10T23:38:30;5.10;92.80
4739;DHT22;2383;48.632;10.156;2022-12-10T23:42:32;5.50;92.50
4739;DHT22;2383;48.632;10.156;2022-12-10T23:46:34;5.40;92.60
4739;DHT22;2383;48.632;10.156;2022-12-10T23:50:36;5.70;92.40
4739;DHT22;2383;48.632;10.156;2022-12-10T23:54:38;5.40;91.90
4739;DHT22;2383;48.632;10.156;2022-12-10T23:58:39;5.30;92.40
